createdAt,value
2022-08-21T00:00:23.165Z,98113.25
2022-08-21T00:02:53.491Z,98109.09
2022-08-21T00:05:21.656Z,98104.47
2022-08-21T00:07:48.954Z,98110.63
2022-08-21T00:10:17.057Z,98112.38
2022-08-21T00:12:46.722Z,98112.06
2022-08-21T00:15:17.841Z,98107.28
2022-08-21T00:17:45.194Z,98105.91
2022-08-21T00:20:15.343Z,98097.09
2022-08-21T00:22:43.280Z,98093.22
2022-08-21T00:25:11.783Z,98101.41
2022-08-21T00:27:39.352Z,98093.38
2022-08-21T00:30:10.126Z,98093.69
2022-08-21T00:32:38.629Z,98078.69
2022-08-21T00:35:09.794Z,98080.69
2022-08-21T00:37:36.956Z,98077.00
2022-08-21T00:40:05.702Z,98071.56
2022-08-21T00:42:33.191Z,98076.03
2022-08-21T00:45:00.610Z,98071.25
2022-08-21T00:47:29.185Z,98070.97
2022-08-21T00:49:56.516Z,98069.28
2022-08-21T00:52:27.905Z,98066.34
2022-08-21T00:54:57.782Z,98060.00
2022-08-21T00:57:29.392Z,98063.13
2022-08-21T00:59:59.438Z,98058.66
2022-08-21T01:02:27.175Z,98051.06
2022-08-21T01:04:55.855Z,98048.44
2022-08-21T01:07:23.098Z,98049.50
2022-08-21T01:09:54.853Z,98047.97
2022-08-21T01:12:22.241Z,98047.50
2022-08-21T01:14:49.616Z,98049.66
2022-08-21T01:17:18.486Z,98035.47
2022-08-21T01:19:45.664Z,98035.00
2022-08-21T01:22:14.310Z,98028.19
2022-08-21T01:24:42.046Z,98025.09
2022-08-21T01:27:09.325Z,98025.22
2022-08-21T01:29:40.115Z,98022.75
2022-08-21T01:32:09.710Z,98026.78
2022-08-21T01:34:40.163Z,98014.88
2022-08-21T01:37:07.867Z,98015.31
2022-08-21T01:39:38.247Z,98011.75
2022-08-21T01:42:06.509Z,98011.63
2022-08-21T01:44:36.362Z,98011.44
2022-08-21T01:47:05.934Z,98003.13
2022-08-21T01:49:33.513Z,98017.16
2022-08-21T01:52:00.753Z,97999.69
2022-08-21T01:54:27.925Z,97998.16
2022-08-21T01:56:57.922Z,97996.56
2022-08-21T01:59:27.937Z,97987.78
2022-08-21T02:01:55.606Z,97994.41
2022-08-21T02:04:22.973Z,97987.63
2022-08-21T02:06:51.001Z,97990.81
2022-08-21T02:09:18.642Z,97984.94
2022-08-21T02:11:45.794Z,97984.00
2022-08-21T02:14:15.821Z,97984.91
2022-08-21T02:17:08.858Z,97972.72
2022-08-21T02:19:40.624Z,97973.81
2022-08-21T02:22:09.322Z,97965.31
2022-08-21T02:24:53.600Z,97958.94
2022-08-21T02:27:26.207Z,97957.22
2022-08-21T02:29:56.949Z,97955.06
2022-08-21T02:32:24.671Z,97943.78
2022-08-21T02:34:51.936Z,97935.94
2022-08-21T02:37:19.189Z,97942.56
2022-08-21T02:39:46.659Z,97940.53
2022-08-21T02:42:14.029Z,97942.66
2022-08-21T02:44:41.144Z,97939.41
2022-08-21T02:47:09.752Z,97934.03
2022-08-21T02:49:37.398Z,97934.31
2022-08-21T02:52:06.759Z,97941.69
2022-08-21T02:54:34.321Z,97946.47
2022-08-21T02:57:01.581Z,97946.25
2022-08-21T02:59:28.881Z,97937.47
2022-08-21T03:01:57.040Z,97934.38
2022-08-21T03:04:25.705Z,97931.59
2022-08-21T03:06:52.897Z,97938.97
2022-08-21T03:09:20.294Z,97937.44
2022-08-21T03:11:47.867Z,97929.56
2022-08-21T03:14:15.212Z,97929.56
2022-08-21T03:16:43.554Z,97932.78
2022-08-21T03:19:10.871Z,97937.88
2022-08-21T03:21:39.514Z,97936.59
2022-08-21T03:24:07.977Z,97939.84
2022-08-21T03:26:36.294Z,97935.19
2022-08-21T03:29:03.580Z,97939.94
2022-08-21T03:31:32.678Z,97943.34
2022-08-21T03:34:00.196Z,97941.78
2022-08-21T03:36:27.504Z,97940.53
2022-08-21T03:38:56.401Z,97939.00
2022-08-21T03:41:23.664Z,97950.25
2022-08-21T03:43:50.869Z,97954.13
2022-08-21T03:46:18.233Z,97947.22
2022-08-21T03:48:45.431Z,97950.78
2022-08-21T03:51:13.265Z,97949.22
2022-08-21T03:53:40.861Z,97969.53
2022-08-21T03:56:09.503Z,97959.47
2022-08-21T03:58:36.901Z,97968.28
2022-08-21T04:01:05.679Z,97951.19
2022-08-21T04:03:34.774Z,97960.50
2022-08-21T04:06:01.922Z,97979.13
2022-08-21T04:08:29.251Z,97985.91
2022-08-21T04:10:59.195Z,97982.69
2022-08-21T04:13:29.249Z,97985.09
2022-08-21T04:15:57.479Z,97986.63
2022-08-21T04:18:24.642Z,97991.53
2022-08-21T04:20:53.838Z,97991.59
2022-08-21T04:23:24.279Z,97999.69
2022-08-21T04:25:53.080Z,98000.97
2022-08-21T04:28:20.349Z,97997.84
2022-08-21T04:30:49.977Z,98000.03
2022-08-21T04:33:17.397Z,97990.84
2022-08-21T04:35:44.845Z,97995.81
2022-08-21T04:38:12.640Z,97996.00
2022-08-21T04:40:40.050Z,97996.97
2022-08-21T04:43:10.627Z,98004.91
2022-08-21T04:45:40.872Z,98011.59
2022-08-21T04:48:14.078Z,98006.06
2022-08-21T04:50:44.571Z,98002.84
2022-08-21T04:53:15.116Z,98002.22
2022-08-21T04:55:43.954Z,98013.69
2022-08-21T04:58:14.224Z,98016.94
2022-08-21T05:00:42.082Z,98020.91
2022-08-21T05:03:11.897Z,98014.59
2022-08-21T05:05:40.826Z,98016.88
2022-08-21T05:08:12.530Z,98020.44
2022-08-21T05:10:39.979Z,98018.56
2022-08-21T05:13:08.055Z,98017.03
2022-08-21T05:15:35.346Z,98011.78
2022-08-21T05:18:02.557Z,98004.47
2022-08-21T05:20:31.525Z,98021.22
2022-08-21T05:22:58.993Z,98012.31
2022-08-21T05:25:26.530Z,98020.47
2022-08-21T05:27:55.545Z,98016.84
2022-08-21T05:30:25.510Z,98013.16
2022-08-21T05:32:58.154Z,98018.03
2022-08-21T05:35:26.169Z,98012.91
2022-08-21T05:37:55.073Z,98018.44
2022-08-21T05:40:23.525Z,98011.13
2022-08-21T05:42:55.075Z,98019.72
2022-08-21T05:45:41.701Z,98017.19
2022-08-21T05:48:12.419Z,98013.59
2022-08-21T05:50:40.058Z,98019.13
2022-08-21T05:53:10.429Z,98014.22
2022-08-21T05:55:42.898Z,98023.56
2022-08-21T05:58:12.716Z,98021.13
2022-08-21T06:00:40.497Z,98026.63
2022-08-21T06:03:12.369Z,98034.44
2022-08-21T06:05:39.901Z,98037.94
2022-08-21T06:08:09.101Z,98031.31
2022-08-21T06:10:36.283Z,98036.31
2022-08-21T06:13:03.832Z,98034.09
2022-08-21T06:15:31.420Z,98039.31
2022-08-21T06:17:58.526Z,98041.16
2022-08-21T06:20:26.638Z,98035.41
2022-08-21T06:22:53.861Z,98039.25
2022-08-21T06:25:22.731Z,98038.13
2022-08-21T06:27:50.184Z,98032.50
2022-08-21T06:30:18.274Z,98035.53
2022-08-21T06:32:45.418Z,98030.91
2022-08-21T06:35:13.135Z,98036.72
2022-08-21T06:37:40.444Z,98040.25
2022-08-21T06:40:12.386Z,98044.91
2022-08-21T06:42:42.883Z,98034.03
2022-08-21T06:45:11.315Z,98048.88
2022-08-21T06:47:38.545Z,98042.38
2022-08-21T06:50:08.655Z,98041.94
2022-08-21T06:52:36.118Z,98046.50
2022-08-21T06:55:05.149Z,98032.44
2022-08-21T06:57:32.543Z,98035.53
2022-08-21T07:00:05.786Z,98035.09
2022-08-21T07:02:34.686Z,98038.59
2022-08-21T07:05:02.053Z,98035.28
2022-08-21T07:07:45.804Z,98033.47
2022-08-21T07:10:22.112Z,98026.34
2022-08-21T07:12:51.043Z,98023.13
2022-08-21T07:15:21.545Z,98021.41
2022-08-21T07:17:48.875Z,98022.72
2022-08-21T07:20:16.113Z,98018.63
2022-08-21T07:22:43.606Z,98018.13
2022-08-21T07:25:11.273Z,98016.84
2022-08-21T07:27:38.479Z,98011.94
2022-08-21T07:30:07.673Z,98016.09
2022-08-21T07:32:36.317Z,98010.31
2022-08-21T07:35:04.242Z,98004.00
2022-08-21T07:37:31.546Z,97993.06
2022-08-21T07:39:58.741Z,98009.53
2022-08-21T07:42:26.136Z,98001.38
2022-08-21T07:44:56.562Z,97997.06
2022-08-21T07:47:41.542Z,97995.13
2022-08-21T07:50:12.615Z,97997.34
2022-08-21T07:52:40.462Z,97994.50
2022-08-21T07:55:09.061Z,97989.09
2022-08-21T07:57:36.541Z,97991.03
2022-08-21T08:00:05.397Z,97983.91
2022-08-21T08:02:40.678Z,97988.34
2022-08-21T08:05:12.496Z,97973.03
2022-08-21T08:07:40.311Z,97981.63
2022-08-21T08:10:09.365Z,97977.63
2022-08-21T08:12:37.197Z,97969.38
2022-08-21T08:15:06.738Z,97966.03
2022-08-21T08:17:34.265Z,97971.41
2022-08-21T08:20:01.949Z,97975.22
2022-08-21T08:22:30.618Z,97973.03
2022-08-21T08:24:58.057Z,97958.56
2022-08-21T08:27:25.181Z,97957.78
2022-08-21T08:29:53.030Z,97952.81
2022-08-21T08:32:20.744Z,97951.69
2022-08-21T08:34:49.831Z,97951.22
2022-08-21T08:37:17.467Z,97943.31
2022-08-21T08:39:46.891Z,97941.50
2022-08-21T08:42:33.823Z,97941.91
2022-08-21T08:45:04.933Z,97932.00
2022-08-21T08:47:35.049Z,97937.72
2022-08-21T08:50:06.212Z,97932.38
2022-08-21T08:52:36.140Z,97927.06
2022-08-21T08:55:08.602Z,97927.06
2022-08-21T08:57:37.318Z,97913.72
2022-08-21T09:00:10.583Z,97925.91
2022-08-21T09:02:40.106Z,97914.47
2022-08-21T09:05:09.350Z,97909.50
2022-08-21T09:07:44.760Z,97912.16
2022-08-21T09:10:19.697Z,97909.78
2022-08-21T09:12:53.673Z,97910.06
2022-08-21T09:15:30.308Z,97902.81
2022-08-21T09:18:11.213Z,97899.38
2022-08-21T09:20:42.062Z,97898.13
2022-08-21T09:23:22.590Z,97892.19
2022-08-21T09:26:01.758Z,97891.75
2022-08-21T09:28:33.139Z,97882.06
2022-08-21T09:31:03.797Z,97881.56
2022-08-21T09:33:30.997Z,97871.91
2022-08-21T09:35:59.317Z,97870.31
2022-08-21T09:38:30.462Z,97860.19
2022-08-21T09:41:02.015Z,97869.09
2022-08-21T09:43:29.641Z,97857.06
2022-08-21T09:46:06.882Z,97864.13
2022-08-21T09:48:42.292Z,97858.78
2022-08-21T09:51:15.277Z,97863.94
2022-08-21T09:53:47.835Z,97862.50
2022-08-21T09:56:44.551Z,97851.34
2022-08-21T09:59:21.472Z,97847.47
2022-08-21T10:01:51.414Z,97845.13
2022-08-21T10:04:23.321Z,97843.66
2022-08-21T10:06:50.825Z,97836.44
2022-08-21T10:09:21.817Z,97836.47
2022-08-21T10:12:11.380Z,97840.69
2022-08-21T10:14:51.997Z,97825.78
2022-08-21T10:17:28.642Z,97821.28
2022-08-21T10:20:06.590Z,97822.19
2022-08-21T10:22:42.218Z,97813.19
2022-08-21T10:25:18.257Z,97815.84
2022-08-21T10:27:57.565Z,97810.44
2022-08-21T10:30:37.966Z,97812.97
2022-08-21T10:33:22.449Z,97816.81
2022-08-21T10:35:56.795Z,97796.38
2022-08-21T10:39:17.807Z,97806.97
2022-08-21T10:42:01.060Z,97795.72
2022-08-21T10:44:40.065Z,97792.19
2022-08-21T10:47:12.530Z,97792.22
2022-08-21T10:49:44.658Z,97787.53
2022-08-21T10:52:43.576Z,97787.16
2022-08-21T10:55:16.403Z,97788.28
2022-08-21T10:57:48.584Z,97787.56
2022-08-21T11:00:20.933Z,97777.53
2022-08-21T11:02:51.880Z,97773.91
2022-08-21T11:05:25.327Z,97770.81
2022-08-21T11:07:55.936Z,97766.22
2022-08-21T11:10:31.698Z,97765.91
2022-08-21T11:13:08.121Z,97772.91
2022-08-21T11:15:44.334Z,97765.00
2022-08-21T11:18:20.982Z,97756.03
2022-08-21T11:21:02.414Z,97752.16
2022-08-21T11:23:38.193Z,97740.09
2022-08-21T11:26:11.546Z,97737.28
2022-08-21T11:28:45.542Z,97735.94
2022-08-21T11:31:27.176Z,97726.94
2022-08-21T11:34:08.373Z,97716.78
2022-08-21T11:36:46.990Z,97716.56
2022-08-21T11:39:23.562Z,97705.84
2022-08-21T11:41:57.936Z,97696.72
2022-08-21T11:44:35.569Z,97704.31
2022-08-21T11:47:13.574Z,97698.13
2022-08-21T11:49:52.160Z,97694.00
2022-08-21T11:52:23.997Z,97686.97
2022-08-21T11:54:56.196Z,97690.59
2022-08-21T11:57:27.835Z,97689.22
2022-08-21T12:00:02.072Z,97688.75
2022-08-21T12:02:46.348Z,97690.41
2022-08-21T12:05:27.872Z,97682.81
2022-08-21T12:08:04.347Z,97684.47
2022-08-21T12:10:38.325Z,97686.50
2022-08-21T12:13:12.523Z,97688.63
2022-08-21T12:15:39.851Z,97685.16
2022-08-21T12:18:23.784Z,97681.63
2022-08-21T12:21:18.134Z,97686.44
2022-08-21T12:23:47.953Z,97677.44
2022-08-21T12:26:24.723Z,97676.06
2022-08-21T12:28:52.141Z,97675.84
2022-08-21T12:31:25.229Z,97674.78
2022-08-21T12:33:59.233Z,97672.91
2022-08-21T12:36:38.830Z,97675.66
2022-08-21T12:39:14.354Z,97671.13
2022-08-21T12:41:49.170Z,97681.53
2022-08-21T12:44:18.792Z,97675.44
2022-08-21T12:46:52.102Z,97674.34
2022-08-21T12:49:29.234Z,97673.56
2022-08-21T12:52:03.548Z,97680.41
2022-08-21T12:54:38.494Z,97689.13
2022-08-21T12:57:08.212Z,97695.56
2022-08-21T12:59:38.966Z,97688.59
2022-08-21T13:02:16.703Z,97693.88
2022-08-21T13:04:47.286Z,97691.13
2022-08-21T13:07:17.748Z,97686.91
2022-08-21T13:09:49.947Z,97678.84
2022-08-21T13:12:20.428Z,97684.47
2022-08-21T13:14:48.521Z,97688.56
2022-08-21T13:17:23.546Z,97688.88
2022-08-21T13:20:00.303Z,97697.84
2022-08-21T13:22:33.858Z,97698.09
2022-08-21T13:25:06.601Z,97695.94
2022-08-21T13:27:35.445Z,97703.28
2022-08-21T13:30:07.135Z,97705.09
2022-08-21T13:32:38.907Z,97712.09
2022-08-21T13:35:16.853Z,97721.47
2022-08-21T13:37:45.917Z,97738.81
2022-08-21T13:40:16.183Z,97729.50
2022-08-21T13:42:45.410Z,97727.09
2022-08-21T13:45:19.837Z,97714.91
2022-08-21T13:47:48.785Z,97710.66
2022-08-21T13:50:19.774Z,97715.88
2022-08-21T13:53:00.826Z,97709.91
2022-08-21T13:55:38.634Z,97713.16
2022-08-21T13:58:06.355Z,97712.31
2022-08-21T14:00:36.582Z,97720.56
2022-08-21T14:03:09.008Z,97721.13
2022-08-21T14:05:45.031Z,97722.94
2022-08-21T14:08:16.157Z,97724.16
2022-08-21T14:10:46.769Z,97731.38
2022-08-21T14:13:30.417Z,97743.31
2022-08-21T14:15:59.411Z,97757.09
2022-08-21T14:18:27.410Z,97767.84
2022-08-21T14:21:07.356Z,97781.00
2022-08-21T14:23:34.810Z,97767.84
2022-08-21T14:26:04.333Z,97769.41
2022-08-21T14:28:34.011Z,97772.47
2022-08-21T14:31:14.586Z,97775.78
2022-08-21T14:33:41.907Z,97776.88
2022-08-21T14:36:11.329Z,97783.63
2022-08-21T14:38:40.723Z,97775.94
2022-08-21T14:41:17.057Z,97764.34
2022-08-21T14:43:45.399Z,97771.38
2022-08-21T14:46:13.890Z,97764.72
2022-08-21T14:48:41.169Z,97762.16
2022-08-21T14:51:08.418Z,97755.25
2022-08-21T14:53:36.890Z,97757.63
2022-08-21T14:56:11.101Z,97756.78
2022-08-21T14:58:41.149Z,97766.66
2022-08-21T15:01:10.372Z,97765.31
2022-08-21T15:03:38.416Z,97766.75
2022-08-21T15:06:06.980Z,97767.94
2022-08-21T15:08:34.439Z,97759.50
2022-08-21T15:11:14.435Z,97761.31
2022-08-21T15:13:43.671Z,97764.53
2022-08-21T15:16:12.945Z,97768.03
2022-08-21T15:18:41.626Z,97765.97
2022-08-21T15:21:09.039Z,97768.22
2022-08-21T15:23:37.042Z,97776.00
2022-08-21T15:26:12.484Z,97780.41
2022-08-21T15:28:40.298Z,97779.13
2022-08-21T15:31:07.974Z,97781.69
2022-08-21T15:33:35.569Z,97767.84
2022-08-21T15:36:03.436Z,97768.25
2022-08-21T15:38:30.746Z,97763.75
2022-08-21T15:40:58.211Z,97764.66
2022-08-21T15:43:29.915Z,97756.75
2022-08-21T15:46:00.245Z,97751.59
2022-08-21T15:48:28.176Z,97749.94
2022-08-21T15:50:55.696Z,97754.66
2022-08-21T15:53:23.276Z,97762.22
2022-08-21T15:55:50.573Z,97770.44
2022-08-21T15:58:20.951Z,97759.81
2022-08-21T16:00:49.784Z,97765.41
2022-08-21T16:03:22.527Z,97763.97
2022-08-21T16:05:53.256Z,97761.25
2022-08-21T16:08:20.667Z,97773.44
2022-08-21T16:10:48.558Z,97766.19
2022-08-21T16:13:19.569Z,97778.25
2022-08-21T16:15:47.314Z,97787.03
2022-08-21T16:18:19.834Z,97791.72
2022-08-21T16:20:47.641Z,97771.97
2022-08-21T16:23:14.914Z,97783.63
2022-08-21T16:25:42.853Z,97796.28
2022-08-21T16:28:13.748Z,97793.50
2022-08-21T16:30:41.881Z,97798.19
2022-08-21T16:33:16.910Z,97797.09
2022-08-21T16:35:46.913Z,97796.47
2022-08-21T16:38:15.183Z,97795.91
2022-08-21T16:40:42.500Z,97793.59
2022-08-21T16:43:09.910Z,97800.28
2022-08-21T16:45:38.391Z,97806.19
2022-08-21T16:48:09.720Z,97807.91
2022-08-21T16:50:37.992Z,97805.28
2022-08-21T16:53:07.166Z,97797.97
2022-08-21T16:55:36.006Z,97800.97
2022-08-21T16:58:07.270Z,97802.91
2022-08-21T17:00:35.404Z,97810.31
2022-08-21T17:03:02.721Z,97811.94
2022-08-21T17:05:30.090Z,97812.72
2022-08-21T17:07:57.407Z,97813.50
2022-08-21T17:10:26.049Z,97822.16
2022-08-21T17:12:57.081Z,97817.34
2022-08-21T17:15:27.702Z,97818.00
2022-08-21T17:17:56.584Z,97802.41
2022-08-21T17:20:24.592Z,97807.84
2022-08-21T17:22:52.498Z,97814.66
2022-08-21T17:25:20.310Z,97806.31
2022-08-21T17:27:49.712Z,97812.88
2022-08-21T17:30:17.560Z,97811.78
2022-08-21T17:32:46.933Z,97806.50
2022-08-21T17:35:14.796Z,97812.41
2022-08-21T17:37:42.176Z,97818.00
2022-08-21T17:40:14.333Z,97825.75
2022-08-21T17:42:42.490Z,97831.00
2022-08-21T17:45:13.630Z,97833.16
2022-08-21T17:47:40.998Z,97835.81
2022-08-21T17:50:11.599Z,97825.94
2022-08-21T17:52:40.524Z,97827.34
2022-08-21T17:55:08.198Z,97842.38
2022-08-21T17:57:36.081Z,97839.59
2022-08-21T18:00:05.977Z,97842.09
2022-08-21T18:02:42.505Z,97854.16
2022-08-21T18:05:13.373Z,97861.47
2022-08-21T18:07:41.004Z,97856.25
2022-08-21T18:10:11.994Z,97861.50
2022-08-21T18:12:41.373Z,97864.25
2022-08-21T18:15:10.951Z,97869.41
2022-08-21T18:17:38.560Z,97875.50
2022-08-21T18:20:09.091Z,97891.69
2022-08-21T18:22:36.357Z,97891.06
2022-08-21T18:25:04.499Z,97882.41
2022-08-21T18:27:31.754Z,97883.50
2022-08-21T18:30:00.582Z,97902.53
2022-08-21T18:32:30.331Z,97908.75
2022-08-21T18:35:00.113Z,97893.94
2022-08-21T18:37:29.346Z,97907.19
2022-08-21T18:39:56.570Z,97906.09
2022-08-21T18:42:28.488Z,97896.22
2022-08-21T18:45:02.197Z,97895.31
2022-08-21T18:47:37.238Z,97905.09
2022-08-21T18:50:06.082Z,97906.78
2022-08-21T18:52:43.431Z,97891.34
2022-08-21T18:55:23.198Z,97899.22
2022-08-21T18:57:52.632Z,97901.38
2022-08-21T19:00:24.321Z,97897.22
2022-08-21T19:02:52.239Z,97881.91
2022-08-21T19:05:23.157Z,97884.09
2022-08-21T19:07:52.499Z,97874.19
2022-08-21T19:10:27.440Z,97865.81
2022-08-21T19:12:56.986Z,97862.16
2022-08-21T19:15:24.449Z,97866.91
2022-08-21T19:17:54.502Z,97863.50
2022-08-21T19:20:26.185Z,97855.19
2022-08-21T19:22:56.415Z,97855.19
2022-08-21T19:25:33.493Z,97852.41
2022-08-21T19:28:03.070Z,97854.91
2022-08-21T19:30:31.163Z,97866.03
2022-08-21T19:32:58.544Z,97869.78
2022-08-21T19:35:27.333Z,97866.38
2022-08-21T19:37:55.866Z,97872.72
2022-08-21T19:40:23.225Z,97873.03
2022-08-21T19:42:50.419Z,97874.41
2022-08-21T19:45:18.009Z,97864.97
2022-08-21T19:47:51.017Z,97870.25
2022-08-21T19:50:21.409Z,97866.72
2022-08-21T19:55:42.058Z,97865.91
2022-08-21T19:58:18.271Z,97869.66
2022-08-21T20:00:50.055Z,97870.59
2022-08-21T20:03:21.220Z,97862.25
2022-08-21T20:05:48.614Z,97860.25
2022-08-21T20:11:05.198Z,97845.75
2022-08-21T20:13:33.980Z,97842.34
2022-08-21T20:16:02.487Z,97845.75
2022-08-21T20:18:31.394Z,97849.00
2022-08-21T20:20:58.946Z,97852.72
2022-08-21T20:23:30.246Z,97851.94
2022-08-21T20:25:57.830Z,97845.31
2022-08-21T20:28:27.063Z,97850.13
2022-08-21T20:30:56.110Z,97846.25
2022-08-21T20:33:23.784Z,97851.81
2022-08-21T20:35:52.272Z,97857.38
2022-08-21T20:38:20.522Z,97857.81
2022-08-21T20:40:51.018Z,97859.41
2022-08-21T20:43:19.849Z,97860.31
2022-08-21T20:45:49.641Z,97857.22
2022-08-21T20:48:23.636Z,97848.88
2022-08-21T20:50:55.414Z,97841.16
2022-08-21T20:53:42.844Z,97842.38
2022-08-21T20:56:15.720Z,97842.41
2022-08-21T20:58:50.832Z,97843.81
2022-08-21T21:01:20.169Z,97843.06
2022-08-21T21:03:53.146Z,97845.84
2022-08-21T21:06:25.652Z,97843.22
2022-08-21T21:08:57.198Z,97851.25
2022-08-21T21:11:31.803Z,97852.66
2022-08-21T21:14:02.202Z,97851.53
2022-08-21T21:16:36.238Z,97851.81
2022-08-21T21:22:02.982Z,97850.88
2022-08-21T21:24:36.774Z,97854.59
2022-08-21T21:27:11.659Z,97844.56
2022-08-21T21:29:43.862Z,97847.78
2022-08-21T21:32:17.985Z,97851.63
2022-08-21T21:34:46.910Z,97851.63
2022-08-21T21:37:25.612Z,97854.72
2022-08-21T21:40:00.911Z,97850.41
2022-08-21T21:42:41.451Z,97860.75
2022-08-21T21:45:18.060Z,97864.63
2022-08-21T21:48:00.206Z,97862.00
2022-08-21T21:50:45.334Z,97863.06
2022-08-21T21:53:31.917Z,97860.28
2022-08-21T21:56:09.383Z,97870.94
2022-08-21T21:59:02.211Z,97875.25
2022-08-21T22:01:43.482Z,97869.06
2022-08-21T22:04:19.160Z,97873.41
2022-08-21T22:06:54.651Z,97875.56
2022-08-21T22:09:31.477Z,97877.41
2022-08-21T22:12:07.594Z,97887.09
2022-08-21T22:14:38.438Z,97882.34
2022-08-21T22:17:16.463Z,97881.25
2022-08-21T22:19:46.657Z,97885.09
2022-08-21T22:22:18.847Z,97899.00
2022-08-21T22:24:52.042Z,97885.59
2022-08-21T22:27:26.049Z,97906.72
2022-08-21T22:29:56.961Z,97911.34
2022-08-21T22:32:27.803Z,97911.81
2022-08-21T22:35:09.377Z,97910.44
2022-08-21T22:37:39.193Z,97916.91
2022-08-21T22:40:11.616Z,97914.91
2022-08-21T22:42:38.977Z,97917.69
2022-08-21T22:45:12.276Z,97920.16
2022-08-21T22:47:46.076Z,97923.53
2022-08-21T22:50:22.203Z,97918.16
2022-08-21T22:52:54.004Z,97921.72
2022-08-21T22:55:25.375Z,97933.44
2022-08-21T22:58:07.857Z,97931.13
2022-08-21T23:00:42.981Z,97935.88
2022-08-21T23:03:18.853Z,97925.56
2022-08-21T23:05:47.951Z,97930.78
2022-08-21T23:08:24.156Z,97929.06
2022-08-21T23:10:58.313Z,97930.13
2022-08-21T23:13:28.076Z,97938.88
2022-08-21T23:16:05.366Z,97946.25
2022-08-21T23:18:54.401Z,97945.28
2022-08-21T23:21:30.770Z,97951.91
2022-08-21T23:24:19.656Z,97941.13
2022-08-21T23:26:56.054Z,97933.25
2022-08-21T23:29:35.065Z,97938.03
2022-08-21T23:32:17.533Z,97946.34
2022-08-21T23:34:55.069Z,97944.81
2022-08-21T23:37:51.956Z,97954.19
2022-08-21T23:40:50.567Z,97960.75
2022-08-21T23:43:44.330Z,97956.94
2022-08-21T23:46:35.075Z,97950.19
2022-08-21T23:49:11.146Z,97956.84
2022-08-21T23:51:50.466Z,97940.03
2022-08-21T23:54:24.678Z,97941.78
2022-08-21T23:57:08.039Z,97938.84
2022-08-21T23:59:47.279Z,97949.31
